Time;durP1;ratioP1;P1;durP2;ratioP2;P2;SDS_P1;SDS_P2;PMS_P1;PMS_P2;Temp;Humidity;BMP_temperature;BMP_pressure;BME280_temperature;BME280_humidity;BME280_pressure;Samples;Min_cycle;Max_cycle;Signal;HPM_P1;HPM_P2
2022/01/20 00:02:22;;;;;;;;;;;;;;;-11.31;77.89;97969.18;110391;1244;68870;-63
2022/01/20 00:05:06;;;;;;;51.20;28.20;;;;;;;-11.33;77.99;97958.38;110219;1244;60174;-65
2022/01/20 00:07:48;;;;;;;40.60;21.10;;;;;;;-11.34;77.81;97952.61;110100;1246;59676;-64
2022/01/20 00:27:10;;;;;;;32.70;17.40;;;;;;;-11.45;78.62;97927.98;110100;1247;67088;-63
2022/01/20 00:32:47;;;;;;;43.60;23.50;;;;;;;-11.42;77.87;97928.20;110176;1245;59675;-65
2022/01/20 00:35:23;;;;;;;39.70;22.00;;;;;;;-11.36;78.02;97926.83;110466;1244;59689;-64
2022/01/20 00:37:52;;;;;;;38.50;21.70;;;;;;;-11.33;79.14;97921.67;110476;1244;70825;-63
2022/01/20 00:40:23;;;;;;;46.80;22.40;;;;;;;-11.28;79.30;97920.27;110390;1244;68730;-63
2022/01/20 00:42:53;;;;;;;36.80;18.40;;;;;;;-11.22;79.51;97919.36;110362;1244;68112;-62
2022/01/20 00:45:22;;;;;;;28.90;15.90;;;;;;;-11.21;80.04;97919.57;110357;1244;60088;-64
2022/01/20 00:47:52;;;;;;;28.40;16.60;;;;;;;-11.21;79.45;97917.71;110142;1245;59724;-64
2022/01/20 00:50:21;;;;;;;44.30;23.20;;;;;;;-11.21;79.35;97908.96;110461;1244;71486;-66
2022/01/20 00:52:52;;;;;;;33.60;17.40;;;;;;;-11.20;79.90;97905.63;110459;1244;68667;-64
2022/01/20 00:55:21;;;;;;;40.10;22.80;;;;;;;-11.22;79.63;97904.57;110101;1247;68544;-64
2022/01/20 00:57:50;;;;;;;35.00;19.10;;;;;;;-11.28;78.54;97897.73;110145;1246;59714;-65
2022/01/20 01:00:20;;;;;;;25.90;13.20;;;;;;;-11.33;78.08;97889.20;110387;1244;59599;-64
2022/01/20 01:02:50;;;;;;;26.10;14.40;;;;;;;-11.37;78.25;97880.36;110395;1244;71359;-67
2022/01/20 01:05:20;;;;;;;35.30;18.60;;;;;;;-11.41;78.55;97877.43;110146;1245;68108;-67
2022/01/20 01:07:52;;;;;;;34.50;19.70;;;;;;;-11.46;78.05;97880.86;110091;1247;68838;-65
2022/01/20 01:10:31;;;;;;;36.10;18.50;;;;;;;-11.52;77.62;97880.39;110159;1247;59667;-63
2022/01/20 01:13:20;;;;;;;40.60;23.00;;;;;;;-11.57;77.65;97875.06;110382;1244;59689;-65
2022/01/20 01:15:51;;;;;;;24.70;14.10;;;;;;;-11.62;77.57;97873.96;110206;1244;71564;-63
2022/01/20 01:21:14;;;;;;;42.80;21.80;;;;;;;-11.74;77.28;97874.20;110375;1244;69561;-66
2022/01/20 01:23:45;;;;;;;20.20;12.10;;;;;;;-11.79;77.12;97870.89;110387;1245;59676;-66
2022/01/20 01:26:17;;;;;;;46.30;24.20;;;;;;;-11.84;77.21;97866.61;110382;1244;59792;-67
2022/01/20 01:28:48;;;;;;;49.80;24.50;;;;;;;-11.87;77.36;97870.89;110162;1244;70862;-64
2022/01/20 01:33:58;;;;;;;52.50;27.40;;;;;;;-11.94;77.11;97868.08;110435;1244;67616;-65
2022/01/20 01:36:32;;;;;;;39.90;23.20;;;;;;;-11.99;77.01;97866.45;110493;1244;59735;-66
2022/01/20 01:39:03;;;;;;;33.80;17.70;;;;;;;-12.01;76.85;97867.06;110130;1247;60100;-65
2022/01/20 01:41:36;;;;;;;47.80;28.30;;;;;;;-12.04;77.09;97853.55;110157;1245;70639;-66
2022/01/20 01:44:09;;;;;;;33.00;16.10;;;;;;;-12.04;76.93;97852.21;110212;1244;68605;-63
2022/01/20 01:46:41;;;;;;;32.50;15.70;;;;;;;-12.03;77.69;97853.05;110117;1247;68654;-63
2022/01/20 01:49:17;;;;;;;31.90;19.00;;;;;;;-12.04;77.72;97855.23;110127;1247;59706;-65
2022/01/20 01:51:47;;;;;;;26.80;12.80;;;;;;;-12.04;77.84;97853.04;110110;1247;59719;-64
2022/01/20 01:54:18;;;;;;;20.60;11.50;;;;;;;-12.04;77.86;97848.17;110129;1244;70913;-63
2022/01/20 01:56:48;;;;;;;31.20;14.60;;;;;;;-12.01;77.64;97839.00;110202;1247;67821;-67
2022/01/20 01:59:26;;;;;;;38.10;20.50;;;;;;;-11.97;77.16;97832.38;110460;1244;68612;-65
2022/01/20 02:02:00;;;;;;;26.10;17.30;;;;;;;-11.98;77.30;97829.13;110178;1247;59782;-65
2022/01/20 02:04:33;;;;;;;30.70;20.20;;;;;;;-11.98;77.61;97824.10;110139;1244;59740;-64
2022/01/20 02:21:29;;;;;;;38.60;23.20;;;;;;;-12.03;78.85;97794.40;110182;1244;71672;-67
2022/01/20 02:24:01;;;;;;;47.90;23.00;;;;;;;-12.05;79.38;97781.42;110241;1244;68402;-65
2022/01/20 02:26:32;;;;;;;30.00;16.70;;;;;;;-12.07;78.98;97781.38;110094;1247;68926;-65
2022/01/20 02:29:02;;;;;;;32.80;18.50;;;;;;;-12.09;78.73;97773.61;110183;1245;59671;-65
2022/01/20 02:31:32;;;;;;;21.70;12.60;;;;;;;-12.10;78.76;97765.70;110237;1244;59730;-64
2022/01/20 02:34:03;;;;;;;31.20;15.90;;;;;;;-12.09;78.45;97765.39;110280;1245;70535;-64
2022/01/20 02:36:36;;;;;;;29.10;15.30;;;;;;;-12.10;78.48;97758.83;109874;1249;67689;-65
2022/01/20 02:39:41;;;;;;;24.80;15.40;;;;;;;-12.11;78.42;97750.21;110118;1247;68587;-67
2022/01/20 02:45:05;;;;;;;22.60;14.00;;;;;;;-12.19;78.52;97738.94;110154;1247;59684;-65
2022/01/20 02:47:35;;;;;;;39.80;21.00;;;;;;;-12.21;78.46;97735.36;110108;1247;70790;-66
2022/01/20 02:50:07;;;;;;;42.20;22.50;;;;;;;-12.24;78.78;97732.45;110163;1245;67867;-67
2022/01/20 02:52:38;;;;;;;35.20;20.60;;;;;;;-12.26;78.54;97723.67;110172;1246;69417;-65
2022/01/20 02:55:08;;;;;;;;;;;;;;;-12.27;78.25;97714.75;110162;1246;59753;-65
2022/01/20 02:57:39;;;;;;;34.00;18.60;;;;;;;-12.25;78.17;97710.57;110101;1247;60016;-64
2022/01/20 03:00:10;;;;;;;29.90;16.10;;;;;;;-12.26;78.40;97708.88;110124;1247;69770;-63
2022/01/20 03:02:42;;;;;;;26.80;14.80;;;;;;;-12.24;78.16;97709.44;110054;1248;67790;-63
2022/01/20 03:05:14;;;;;;;31.70;19.70;;;;;;;-12.20;78.43;97710.70;110093;1247;69416;-63
2022/01/20 03:07:46;;;;;;;32.10;15.80;;;;;;;-12.18;78.55;97708.55;109931;1247;59694;-65
2022/01/20 03:10:17;;;;;;;31.30;17.60;;;;;;;-12.15;78.55;97705.43;110138;1247;59664;-63
2022/01/20 03:12:47;;;;;;;28.80;15.40;;;;;;;-12.17;78.93;97703.54;110013;1250;69984;-63
2022/01/20 03:15:16;;;;;;;21.70;13.50;;;;;;;-12.21;78.99;97704.98;110007;1247;68122;-64
2022/01/20 03:17:46;;;;;;;22.80;13.80;;;;;;;-12.25;78.85;97707.39;110103;1247;69472;-62
2022/01/20 03:20:16;;;;;;;46.50;23.90;;;;;;;-12.30;78.82;97708.80;110201;1244;59719;-63
2022/01/20 03:22:47;;;;;;;33.70;19.60;;;;;;;-12.35;79.22;97707.70;110154;1247;59586;-63
2022/01/20 03:25:17;;;;;;;52.10;26.60;;;;;;;-12.40;78.23;97709.11;110075;1247;70420;-62
2022/01/20 03:27:47;;;;;;;47.30;25.40;;;;;;;-12.48;77.34;97705.91;110102;1248;68605;-63
2022/01/20 03:30:17;;;;;;;49.40;26.00;;;;;;;-12.56;76.81;97696.14;110120;1247;69397;-64
2022/01/20 03:32:47;;;;;;;38.40;21.70;;;;;;;-12.73;75.71;97693.23;110085;1247;59684;-64
2022/01/20 03:35:17;;;;;;;41.30;25.20;;;;;;;-12.84;76.07;97691.48;110026;1248;59724;-63
2022/01/20 03:37:57;;;;;;;28.60;18.10;;;;;;;-12.94;76.33;97686.20;110081;1247;70800;-63
2022/01/20 03:40:26;;;;;;;30.10;17.70;;;;;;;-12.96;76.58;97685.99;110084;1248;67673;-64
2022/01/20 03:42:56;;;;;;;48.20;23.70;;;;;;;-12.99;76.89;97688.45;110057;1248;68614;-62
2022/01/20 03:45:27;;;;;;;52.90;26.00;;;;;;;-13.00;77.37;97691.77;109931;1248;59835;-65
2022/01/20 03:48:06;;;;;;;43.30;24.40;;;;;;;-13.00;77.48;97695.96;110304;1247;59678;-64
2022/01/20 03:53:38;;;;;;;37.00;20.60;;;;;;;-12.97;78.31;97690.83;110132;1245;66695;-63
2022/01/20 03:56:12;;;;;;;25.70;13.30;;;;;;;-12.95;78.38;97688.36;110107;1247;68627;-63
2022/01/20 03:59:02;;;;;;;16.60;10.00;;;;;;;-12.94;78.23;97680.85;109905;1247;59771;-64
2022/01/20 04:01:32;;;;;;;19.60;12.30;;;;;;;-12.94;77.75;97674.13;110148;1247;59738;-63
2022/01/20 04:04:07;;;;;;;27.70;16.40;;;;;;;-12.96;77.69;97671.73;110117;1247;70742;-66
2022/01/20 04:06:43;;;;;;;14.00;8.80;;;;;;;-12.98;77.50;97671.52;110219;1244;67763;-64
2022/01/20 04:09:13;;;;;;;18.90;13.20;;;;;;;-13.01;77.42;97677.33;110292;1244;69215;-64
2022/01/20 04:11:44;;;;;;;28.90;15.50;;;;;;;-13.02;77.32;97679.66;110155;1245;59738;-63
2022/01/20 04:14:14;;;;;;;;;;;;;;;-13.03;77.47;97678.44;110102;1248;59736;-64
2022/01/20 04:17:05;;;;;;;28.60;18.30;;;;;;;-13.04;77.32;97678.09;110226;1245;71559;-63
2022/01/20 04:19:35;;;;;;;25.10;14.20;;;;;;;-13.07;77.24;97675.67;110169;1247;68741;-63
2022/01/20 04:22:05;;;;;;;;;;;;;;;-13.09;77.03;97673.60;110166;1245;68603;-63
2022/01/20 04:24:37;;;;;;;25.50;13.40;;;;;;;-13.12;77.18;97674.55;110265;1244;59735;-63
2022/01/20 04:27:06;;;;;;;26.40;13.80;;;;;;;-13.14;76.94;97671.14;110155;1247;60139;-63
2022/01/20 04:29:38;;;;;;;30.80;18.10;;;;;;;-13.13;76.76;97668.13;110186;1246;70795;-63
2022/01/20 04:32:08;;;;;;;45.10;24.90;;;;;;;-13.16;76.97;97666.05;110084;1247;67964;-63
2022/01/20 04:34:39;;;;;;;35.80;22.30;;;;;;;-13.17;77.66;97664.85;110048;1246;69248;-63
2022/01/20 04:37:08;;;;;;;24.40;14.60;;;;;;;-13.18;77.64;97663.48;110180;1247;60157;-63
2022/01/20 04:39:44;;;;;;;34.20;19.00;;;;;;;-13.19;77.52;97654.58;110478;1244;59677;-63
2022/01/20 04:42:16;;;;;;;23.90;15.10;;;;;;;-13.20;77.69;97656.08;110131;1246;70724;-63
2022/01/20 04:44:52;;;;;;;31.50;20.40;;;;;;;-13.21;77.63;97651.85;110023;1247;68622;-63
2022/01/20 04:58:36;;;;;;;26.80;18.40;;;;;;;-13.33;77.92;97652.92;110470;1244;67807;-65
2022/01/20 05:01:07;;;;;;;33.00;17.30;;;;;;;-13.34;77.98;97655.59;110127;1247;68528;-66
2022/01/20 05:03:57;;;;;;;;;;;;;;;-13.33;78.42;97660.48;110420;1245;59717;-62
2022/01/20 05:06:53;;;;;;;43.80;25.60;;;;;;;-13.32;78.09;97661.32;110312;1244;59657;-64
2022/01/20 05:09:23;;;;;;;60.50;31.40;;;;;;;-13.38;76.92;97672.76;110142;1245;71654;-63
2022/01/20 05:12:02;;;;;;;44.60;25.80;;;;;;;-13.55;76.69;97676.52;110112;1245;68432;-64
2022/01/20 05:14:33;;;;;;;42.60;24.60;;;;;;;-13.65;76.89;97672.08;110110;1247;67651;-63
2022/01/20 05:17:04;;;;;;;37.90;20.60;;;;;;;-13.70;76.96;97668.94;110047;1247;59777;-63
2022/01/20 05:19:34;;;;;;;32.00;19.80;;;;;;;-13.73;76.89;97667.01;110455;1244;59689;-62
2022/01/20 05:22:04;;;;;;;60.50;29.40;;;;;;;-13.78;77.02;97671.89;110419;1245;70751;-63
2022/01/20 05:24:40;;;;;;;45.80;21.70;;;;;;;-13.81;76.84;97672.50;110552;1245;69345;-64
2022/01/20 05:27:10;;;;;;;27.30;15.10;;;;;;;-13.80;76.82;97674.70;110099;1247;69504;-62
2022/01/20 05:29:39;;;;;;;29.70;16.10;;;;;;;-13.79;77.08;97670.36;110395;1244;59685;-64
2022/01/20 05:32:09;;;;;;;24.80;13.70;;;;;;;-13.78;77.15;97659.33;110096;1244;59735;-63
2022/01/20 05:34:39;;;;;;;30.90;14.10;;;;;;;-13.74;77.75;97654.59;110130;1247;70697;-63
2022/01/20 05:37:09;;;;;;;37.40;23.00;;;;;;;-13.71;78.14;97653.33;110182;1245;68155;-64
2022/01/20 05:39:38;;;;;;;31.50;18.20;;;;;;;-13.69;78.04;97657.40;110200;1245;70040;-64
2022/01/20 05:42:09;;;;;;;35.70;20.20;;;;;;;-13.68;77.57;97655.57;110182;1247;59679;-64
2022/01/20 05:44:49;;;;;;;28.60;17.00;;;;;;;-13.68;77.40;97654.59;110169;1247;59624;-63
2022/01/20 05:47:27;;;;;;;28.20;17.10;;;;;;;-13.67;77.40;97655.93;110095;1247;71487;-65
2022/01/20 05:50:10;;;;;;;41.80;20.90;;;;;;;-13.66;77.85;97658.31;110149;1247;67768;-65
2022/01/20 05:52:41;;;;;;;27.30;16.50;;;;;;;-13.64;77.94;97653.67;109986;1247;69659;-65
2022/01/20 05:55:17;;;;;;;28.50;17.50;;;;;;;-13.61;78.04;97648.38;110337;1247;59680;-64
2022/01/20 05:57:47;;;;;;;20.00;10.20;;;;;;;-13.58;77.67;97655.00;110141;1244;60116;-64
2022/01/20 06:00:22;;;;;;;32.80;16.90;;;;;;;-13.55;78.08;97650.52;110143;1245;71672;-65
2022/01/20 06:05:47;;;;;;;25.90;16.00;;;;;;;-13.51;78.31;97653.15;110101;1247;68674;-62
2022/01/20 06:08:17;;;;;;;42.40;20.60;;;;;;;-13.48;78.41;97650.39;110065;1247;59757;-64
2022/01/20 06:10:46;;;;;;;50.10;27.10;;;;;;;-13.43;78.33;97649.33;110081;1247;59735;-63
2022/01/20 06:13:27;;;;;;;40.30;23.30;;;;;;;-13.41;77.38;97647.04;110134;1247;70843;-63
2022/01/20 06:15:57;;;;;;;69.00;37.90;;;;;;;-13.40;76.96;97645.58;110286;1247;69277;-63
2022/01/20 06:18:26;;;;;;;52.20;28.30;;;;;;;-13.40;76.76;97645.03;110072;1247;68798;-64
2022/01/20 06:20:57;;;;;;;39.00;23.20;;;;;;;-13.41;76.78;97639.66;110186;1245;59701;-63
2022/01/20 06:23:28;;;;;;;33.50;15.40;;;;;;;-13.39;76.93;97638.88;110483;1244;59671;-63
2022/01/20 06:25:57;;;;;;;24.90;13.20;;;;;;;-13.36;77.05;97631.90;110205;1245;70847;-64
2022/01/20 06:28:27;;;;;;;48.60;27.80;;;;;;;-13.31;77.10;97626.83;110086;1247;68053;-63
2022/01/20 06:30:56;;;;;;;34.90;18.00;;;;;;;-13.26;77.54;97626.43;110098;1247;69396;-64
2022/01/20 06:33:26;;;;;;;34.30;17.80;;;;;;;-13.19;77.15;97620.20;110132;1248;59704;-62
2022/01/20 06:35:57;;;;;;;33.00;19.90;;;;;;;-13.12;76.92;97622.89;110048;1247;59687;-62
2022/01/20 06:38:27;;;;;;;40.50;21.20;;;;;;;-13.08;77.26;97636.05;110083;1248;71323;-64
2022/01/20 06:40:57;;;;;;;37.60;19.80;;;;;;;-13.04;77.31;97640.32;110130;1247;68431;-63
2022/01/20 06:43:28;;;;;;;21.00;12.80;;;;;;;-12.99;77.26;97647.16;110184;1247;68740;-63
2022/01/20 06:45:59;;;;;;;33.80;17.60;;;;;;;-12.92;77.27;97645.15;110456;1245;59661;-64
2022/01/20 06:48:50;;;;;;;61.40;33.10;;;;;;;-12.81;77.98;97645.40;110406;1246;59742;-64
2022/01/20 06:51:30;;;;;;;;;;;;;;;-12.72;77.64;97647.09;110456;1245;71574;-66
2022/01/20 06:53:59;;;;;;;67.10;39.60;;;;;;;-12.67;76.69;97645.20;110139;1247;68702;-64
2022/01/20 06:56:29;;;;;;;87.20;48.90;;;;;;;-12.65;75.31;97643.73;110140;1247;68485;-65
2022/01/20 06:59:15;;;;;;;60.60;32.30;;;;;;;-12.65;74.69;97645.09;110115;1247;59698;-64
2022/01/20 07:01:46;;;;;;;54.60;31.50;;;;;;;-12.57;74.74;97636.17;109791;1247;433362;-63
2022/01/20 07:04:26;;;;;;;57.40;33.00;;;;;;;-12.45;74.45;97633.23;110328;1244;71163;-63
2022/01/20 07:06:56;;;;;;;70.50;35.90;;;;;;;-12.30;74.41;97624.81;110369;1244;68030;-65
2022/01/20 07:09:51;;;;;;;45.80;22.90;;;;;;;-12.06;74.93;97628.98;110131;1245;68942;-65
2022/01/20 07:12:27;;;;;;;211.70;105.40;;;;;;;-11.51;74.25;97629.11;110339;1245;59804;-67
2022/01/20 07:14:56;;;;;;;176.50;90.10;;;;;;;-10.83;72.72;97631.86;110156;1247;59683;-65
2022/01/20 07:17:25;;;;;;;99.70;53.00;;;;;;;-10.19;70.80;97629.00;110449;1245;70848;-65
2022/01/20 07:19:55;;;;;;;140.90;72.30;;;;;;;-9.69;69.20;97627.36;110111;1247;69260;-67
2022/01/20 07:22:25;;;;;;;130.00;68.60;;;;;;;-9.14;69.81;97632.60;110219;1247;68435;-63
2022/01/20 07:24:58;;;;;;;112.90;62.10;;;;;;;-8.59;66.58;97649.37;110194;1247;59700;-66
2022/01/20 07:27:46;;;;;;;62.10;34.60;;;;;;;-7.83;64.76;97645.84;110348;1246;59671;-64
2022/01/20 07:30:35;;;;;;;46.80;26.60;;;;;;;-7.27;63.88;97659.69;110033;1248;71821;-64
2022/01/20 07:33:05;;;;;;;38.10;24.70;;;;;;;-6.59;64.10;97662.08;110157;1247;69407;-65
2022/01/20 07:35:37;;;;;;;51.90;30.80;;;;;;;-5.73;64.98;97653.33;110150;1247;69219;-62
2022/01/20 07:38:07;;;;;;;55.90;32.30;;;;;;;-4.87;58.12;97652.27;110090;1247;59670;-64
2022/01/20 07:40:37;;;;;;;56.80;33.50;;;;;;;-4.20;57.77;97645.04;110176;1245;59697;-63
2022/01/20 07:43:07;;;;;;;63.60;39.60;;;;;;;-3.52;54.85;97648.33;110094;1247;71823;-63
2022/01/20 07:45:46;;;;;;;66.70;37.20;;;;;;;-2.92;53.75;97651.56;110046;1247;67916;-63
2022/01/20 07:48:24;;;;;;;59.30;32.20;;;;;;;-2.23;54.39;97650.55;110190;1247;68752;-63
2022/01/20 07:51:01;;;;;;;59.90;31.20;;;;;;;-1.66;53.77;97656.31;110068;1248;59669;-64
2022/01/20 07:53:34;;;;;;;56.00;34.10;;;;;;;-1.26;53.65;97663.52;110119;1247;59665;-66
2022/01/20 07:56:05;;;;;;;52.40;28.60;;;;;;;-0.77;50.91;97667.71;110226;1245;71664;-66
2022/01/20 07:58:35;;;;;;;64.50;36.20;;;;;;;-0.21;49.98;97664.60;110115;1247;69111;-69
2022/01/20 08:01:06;;;;;;;58.80;33.20;;;;;;;0.30;48.18;97660.33;110117;1247;69535;-67
2022/01/20 08:03:38;;;;;;;55.70;34.20;;;;;;;0.73;48.48;97658.25;110236;1247;59745;-65
2022/01/20 08:06:11;;;;;;;50.00;30.70;;;;;;;1.11;49.12;97656.56;110442;1244;59690;-67
2022/01/20 08:08:43;;;;;;;61.70;38.60;;;;;;;1.56;45.52;97656.85;110363;1244;70728;-65
2022/01/20 08:11:44;;;;;;;114.80;72.00;;;;;;;2.14;41.64;97646.99;109996;1244;67807;-67
2022/01/20 08:14:31;;;;;;;106.60;64.60;;;;;;;2.46;42.82;97642.22;110167;1247;69416;-64
2022/01/20 08:17:00;;;;;;;107.10;66.20;;;;;;;2.79;42.08;97640.83;110197;1245;59716;-64
2022/01/20 08:19:31;;;;;;;116.20;79.10;;;;;;;3.07;41.94;97634.91;110074;1248;59694;-63
2022/01/20 08:22:02;;;;;;;;;;;;;;;3.28;40.52;97627.17;110206;1247;71612;-65
2022/01/20 08:24:52;;;;;;;78.50;47.80;;;;;;;3.63;38.49;97623.86;110456;1244;68728;-70
2022/01/20 08:27:22;;;;;;;84.40;54.30;;;;;;;3.91;38.88;97623.05;110336;1245;68729;-65
2022/01/20 08:29:51;;;;;;;102.80;65.00;;;;;;;4.25;36.90;97622.41;110151;1244;59649;-66
2022/01/20 08:32:24;;;;;;;109.70;75.40;;;;;;;4.21;37.28;97626.23;110325;1244;59680;-67
2022/01/20 08:35:14;;;;;;;93.70;63.40;;;;;;;3.75;38.03;97625.58;110490;1244;71653;-67
2022/01/20 08:38:06;;;;;;;86.00;55.70;;;;;;;3.97;38.65;97622.43;110464;1247;69045;-69
2022/01/20 08:40:36;;;;;;;79.80;50.70;;;;;;;4.35;37.51;97614.21;110285;1247;69738;-68
2022/01/20 08:43:06;;;;;;;77.00;51.40;;;;;;;4.80;38.15;97612.17;110514;1245;59678;-66
2022/01/20 08:45:38;;;;;;;70.50;41.80;;;;;;;5.17;37.88;97611.63;110309;1247;59608;-67
2022/01/20 08:48:11;;;;;;;57.10;38.50;;;;;;;5.56;37.07;97604.53;110082;1248;72202;-67
2022/01/20 08:51:05;;;;;;;63.50;40.70;;;;;;;6.11;35.54;97599.88;110246;1247;68653;-64
2022/01/20 08:53:40;;;;;;;73.00;50.30;;;;;;;6.57;36.70;97600.21;110255;1248;68726;-69
2022/01/20 08:56:11;;;;;;;69.30;46.50;;;;;;;6.92;35.59;97604.39;110234;1247;59871;-68
2022/01/20 08:58:40;;;;;;;70.40;46.00;;;;;;;7.15;33.42;97614.20;110276;1247;59670;-68
2022/01/20 09:01:09;;;;;;;79.40;53.10;;;;;;;7.43;33.12;97612.64;110117;1247;71445;-68
2022/01/20 09:03:38;;;;;;;63.70;41.80;;;;;;;7.86;32.85;97604.96;110432;1245;67785;-69
2022/01/20 09:06:08;;;;;;;68.40;48.00;;;;;;;8.45;31.82;97603.65;110156;1247;69218;-70
2022/01/20 09:08:43;;;;;;;55.60;38.20;;;;;;;8.71;29.96;97594.96;110152;1244;59663;-68
2022/01/20 09:11:22;;;;;;;50.70;34.70;;;;;;;8.28;31.60;97592.00;110451;1244;59686;-69
2022/01/20 09:16:47;;;;;;;47.00;30.40;;;;;;;8.47;33.51;97580.42;110496;1244;68307;-65
2022/01/20 09:19:18;;;;;;;47.20;31.20;;;;;;;8.96;32.27;97576.89;110282;1246;69835;-67
2022/01/20 09:22:07;;;;;;;39.00;28.80;;;;;;;9.54;31.01;97565.11;110523;1247;59756;-64
2022/01/20 09:24:37;;;;;;;30.50;23.20;;;;;;;9.86;30.19;97551.85;110556;1244;59687;-68
2022/01/20 09:27:06;;;;;;;31.90;22.10;;;;;;;9.77;30.29;97542.55;110602;1246;71937;-64
2022/01/20 09:29:36;;;;;;;34.20;22.60;;;;;;;9.50;29.85;97544.13;110533;1245;67357;-69
2022/01/20 09:32:10;;;;;;;30.80;20.70;;;;;;;9.47;30.47;97534.96;110125;1248;69556;-70
2022/01/20 09:34:40;;;;;;;31.70;20.20;;;;;;;9.86;30.26;97534.77;110282;1247;59751;-66
2022/01/20 09:37:09;;;;;;;29.60;18.70;;;;;;;9.86;28.83;97530.98;110113;1247;60072;-67
2022/01/20 09:39:41;;;;;;;33.20;21.20;;;;;;;9.62;29.09;97524.05;110457;1247;70692;-68
2022/01/20 09:42:19;;;;;;;28.60;17.60;;;;;;;9.73;29.29;97523.98;110176;1249;67039;-64
2022/01/20 09:44:48;;;;;;;;;;;;;;;9.89;29.37;97522.58;110179;1247;68806;-67
2022/01/20 09:47:19;;;;;;;23.10;15.90;;;;;;;10.00;28.44;97518.01;110438;1246;59728;-66
2022/01/20 09:49:54;;;;;;;24.30;16.40;;;;;;;10.47;29.14;97512.80;110420;1247;59741;-70
2022/01/20 09:52:38;;;;;;;22.60;14.00;;;;;;;10.29;28.83;97504.34;110568;1246;70843;-70
2022/01/20 09:55:25;;;;;;;26.00;17.40;;;;;;;10.52;28.62;97496.94;110254;1247;68648;-70
2022/01/20 09:57:54;;;;;;;25.10;16.30;;;;;;;10.53;28.79;97487.32;110224;1247;68871;-70
2022/01/20 10:00:24;;;;;;;25.00;16.60;;;;;;;10.01;28.33;97483.41;110052;1248;59637;-71
2022/01/20 10:03:12;;;;;;;22.30;15.20;;;;;;;9.12;30.07;97481.40;110134;1247;60017;-68
2022/01/20 10:05:53;;;;;;;23.10;16.30;;;;;;;9.44;30.05;97473.23;110278;1247;71576;-68
2022/01/20 10:08:27;;;;;;;20.00;13.70;;;;;;;8.52;31.31;97471.91;110288;1247;68422;-67
2022/01/20 10:11:13;;;;;;;20.60;13.90;;;;;;;7.73;32.63;97470.56;110465;1247;69458;-70
2022/01/20 10:14:02;;;;;;;28.10;18.70;;;;;;;7.14;33.98;97465.55;110562;1247;59738;-72
2022/01/20 10:16:43;;;;;;;26.50;17.60;;;;;;;6.12;35.15;97460.00;110497;1247;59752;-73
2022/01/20 10:19:27;;;;;;;16.90;12.00;;;;;;;5.29;36.85;97448.60;110522;1247;70983;-67
2022/01/20 10:22:00;;;;;;;20.10;13.90;;;;;;;4.69;37.77;97437.42;110272;1247;68050;-66
2022/01/20 10:25:02;;;;;;;18.40;12.80;;;;;;;4.20;38.87;97432.36;110524;1247;68679;-65
2022/01/20 10:27:52;;;;;;;17.80;10.40;;;;;;;3.75;39.95;97423.55;110533;1247;59734;-66
2022/01/20 10:30:25;;;;;;;21.20;12.70;;;;;;;3.39;40.41;97425.17;110078;1247;59713;-68
2022/01/20 10:32:58;;;;;;;19.40;13.00;;;;;;;3.10;41.12;97423.66;110115;1247;72159;-65
2022/01/20 10:35:34;;;;;;;18.10;11.50;;;;;;;2.82;41.66;97412.11;110570;1247;68044;-65
2022/01/20 10:38:14;;;;;;;20.20;12.30;;;;;;;2.64;42.55;97401.52;110524;1247;69373;-66
2022/01/20 10:40:59;;;;;;;16.20;12.10;;;;;;;2.63;42.90;97388.30;110260;1247;59729;-66
2022/01/20 10:43:35;;;;;;;18.40;11.40;;;;;;;3.12;43.00;97386.22;110160;1247;59735;-66
2022/01/20 10:46:51;;;;;;;20.90;12.10;;;;;;;3.90;40.95;97382.69;110173;1247;72082;-64
2022/01/20 10:49:31;;;;;;;17.10;10.90;;;;;;;4.99;39.38;97377.23;110547;1247;69189;-66
2022/01/20 10:52:05;;;;;;;18.60;10.10;;;;;;;6.35;36.47;97365.92;110538;1247;69460;-70
2022/01/20 10:54:40;;;;;;;19.50;12.00;;;;;;;7.53;34.00;97365.83;110561;1247;59744;-66
2022/01/20 10:57:15;;;;;;;18.50;11.70;;;;;;;7.97;33.54;97360.45;110253;1247;59718;-65
2022/01/20 10:59:52;;;;;;;18.90;12.40;;;;;;;8.01;32.95;97351.15;110309;1247;71368;-66
2022/01/20 11:02:29;;;;;;;21.70;14.20;;;;;;;8.20;32.41;97340.74;110220;1247;67540;-68
2022/01/20 11:05:00;;;;;;;20.20;12.50;;;;;;;7.91;32.54;97338.77;110298;1247;70053;-69
2022/01/20 11:07:30;;;;;;;15.70;10.90;;;;;;;7.50;32.92;97335.14;110256;1247;59677;-67
2022/01/20 11:10:04;;;;;;;16.80;10.50;;;;;;;7.82;33.02;97331.90;110260;1245;59747;-67
2022/01/20 11:12:39;;;;;;;;;;;;;;;8.50;32.13;97326.66;110579;1247;71567;-67
2022/01/20 11:15:29;;;;;;;18.10;11.30;;;;;;;8.75;31.36;97323.84;110579;1247;69157;-64
2022/01/20 11:17:59;;;;;;;22.10;14.00;;;;;;;7.93;31.98;97318.52;110307;1246;68403;-65
2022/01/20 11:20:40;;;;;;;19.80;13.50;;;;;;;7.41;33.07;97312.08;110249;1247;59707;-66
2022/01/20 11:23:11;;;;;;;22.70;14.60;;;;;;;8.03;33.02;97306.61;110259;1248;59748;-69
2022/01/20 11:26:04;;;;;;;22.00;12.50;;;;;;;9.21;31.25;97308.19;110191;1247;71756;-65
2022/01/20 11:29:00;;;;;;;21.10;13.60;;;;;;;9.06;30.52;97304.53;110589;1245;68538;-64
2022/01/20 11:31:52;;;;;;;22.30;14.20;;;;;;;8.19;31.75;97294.13;110319;1247;68665;-64
2022/01/20 11:35:04;;;;;;;17.00;11.50;;;;;;;7.05;33.40;97291.05;110557;1247;59649;-67
2022/01/20 11:37:39;;;;;;;16.40;11.30;;;;;;;7.68;33.45;97287.15;110539;1247;59661;-66
2022/01/20 11:40:11;;;;;;;21.20;14.30;;;;;;;8.66;32.13;97283.09;110562;1247;71622;-67
2022/01/20 11:42:40;;;;;;;18.80;12.00;;;;;;;8.34;31.71;97276.86;110493;1245;68426;-65
2022/01/20 11:45:36;;;;;;;15.50;11.60;;;;;;;7.57;32.66;97269.09;110279;1247;69755;-64
2022/01/20 11:48:20;;;;;;;18.50;12.80;;;;;;;6.47;34.40;97260.04;110494;1247;59671;-66
2022/01/20 11:51:23;;;;;;;19.80;13.20;;;;;;;5.54;36.13;97250.59;110614;1247;59731;-65
2022/01/20 11:54:14;;;;;;;18.30;11.20;;;;;;;4.68;38.31;97248.45;109634;1253;70133;-64
2022/01/20 11:56:44;;;;;;;18.20;11.30;;;;;;;4.24;39.23;97243.10;109629;1254;68700;-65
2022/01/20 11:59:15;;;;;;;19.90;12.90;;;;;;;3.86;39.73;97232.58;109647;1254;68840;-64
2022/01/20 12:01:53;;;;;;;21.10;13.40;;;;;;;3.56;40.75;97225.36;109557;1253;59702;-64
2022/01/20 12:04:37;;;;;;;21.40;13.40;;;;;;;3.32;41.49;97220.48;109492;1254;59649;-69
2022/01/20 12:07:27;;;;;;;21.50;12.20;;;;;;;3.21;41.77;97213.43;109642;1255;70953;-65
2022/01/20 12:10:10;;;;;;;20.80;13.40;;;;;;;3.15;41.91;97207.49;109634;1253;69098;-64
2022/01/20 12:12:41;;;;;;;23.60;16.00;;;;;;;2.86;42.56;97206.41;109660;1254;69423;-69
2022/01/20 12:15:15;;;;;;;19.00;11.60;;;;;;;2.63;43.55;97196.27;109655;1254;60129;-65
2022/01/20 12:17:54;;;;;;;19.30;12.70;;;;;;;2.40;44.02;97186.44;109514;1254;59648;-67
2022/01/20 12:20:24;;;;;;;19.00;13.30;;;;;;;2.25;44.29;97181.25;109584;1254;71606;-69
2022/01/20 12:22:54;;;;;;;20.00;14.40;;;;;;;2.10;44.68;97188.92;109552;1255;68730;-69
2022/01/20 12:25:26;;;;;;;22.10;15.00;;;;;;;2.02;45.35;97191.67;109528;1254;69851;-72
2022/01/20 12:28:09;;;;;;;18.60;11.60;;;;;;;1.83;46.27;97180.09;109756;1254;59793;-73
2022/01/20 12:30:47;;;;;;;17.60;11.50;;;;;;;1.84;46.15;97171.84;110134;1247;59725;-70
2022/01/20 12:33:22;;;;;;;18.90;11.50;;;;;;;1.81;45.86;97164.18;110507;1244;71974;-65
2022/01/20 12:35:54;;;;;;;19.20;10.40;;;;;;;1.78;46.23;97159.70;110614;1244;69221;-64
2022/01/20 12:38:26;;;;;;;19.30;11.60;;;;;;;1.79;46.36;97157.92;110574;1246;68515;-65
2022/01/20 12:41:07;;;;;;;21.80;12.90;;;;;;;1.81;46.23;97156.66;110301;1247;59743;-64
2022/01/20 12:43:58;;;;;;;25.40;14.10;;;;;;;1.70;46.62;97152.11;110560;1245;59674;-65
2022/01/20 12:46:29;;;;;;;19.60;12.30;;;;;;;1.62;46.95;97141.30;110561;1244;71945;-66
2022/01/20 12:49:13;;;;;;;21.10;13.70;;;;;;;1.61;46.74;97139.96;110586;1246;69267;-65